createdAt,value
2022-09-02T00:01:56.356Z,18.40
2022-09-02T00:04:28.427Z,18.40
2022-09-02T00:06:55.340Z,18.40
2022-09-02T00:09:23.266Z,18.40
2022-09-02T00:11:50.698Z,18.40
2022-09-02T00:14:19.748Z,18.40
2022-09-02T00:16:51.032Z,18.40
2022-09-02T00:19:25.808Z,18.40
2022-09-02T00:21:53.410Z,18.30
2022-09-02T00:24:22.732Z,18.40
2022-09-02T00:26:49.757Z,18.40
2022-09-02T00:29:16.850Z,18.40
2022-09-02T00:31:44.005Z,18.30
2022-09-02T00:34:11.167Z,18.40
2022-09-02T00:36:40.270Z,18.40
2022-09-02T00:39:09.849Z,18.30
2022-09-02T00:41:37.823Z,18.30
2022-09-02T00:44:08.981Z,18.20
2022-09-02T00:46:36.302Z,18.20
2022-09-02T00:49:08.863Z,18.20
2022-09-02T00:51:48.729Z,18.20
2022-09-02T00:54:17.169Z,18.20
2022-09-02T00:56:45.082Z,18.10
2022-09-02T00:59:19.714Z,18.00
2022-09-02T01:01:46.409Z,18.00
2022-09-02T01:04:13.152Z,18.00
2022-09-02T01:06:40.226Z,18.00
2022-09-02T01:09:12.022Z,17.90
2022-09-02T01:11:40.429Z,18.00
2022-09-02T01:14:07.316Z,18.00
2022-09-02T01:16:42.278Z,18.00
2022-09-02T01:19:16.108Z,17.90
2022-09-02T01:21:47.625Z,17.90
2022-09-02T01:24:14.442Z,17.90
2022-09-02T01:26:41.025Z,17.80
2022-09-02T01:29:07.825Z,17.70
2022-09-02T01:31:34.788Z,17.60
2022-09-02T01:34:03.838Z,17.50
2022-09-02T01:36:32.857Z,17.50
2022-09-02T01:38:59.924Z,17.50
2022-09-02T01:41:29.028Z,17.50
2022-09-02T01:43:56.077Z,17.40
2022-09-02T01:46:25.378Z,17.50
2022-09-02T01:48:52.049Z,17.50
2022-09-02T01:51:19.286Z,17.50
2022-09-02T01:53:48.796Z,17.50
2022-09-02T01:56:18.466Z,17.40
2022-09-02T01:58:45.017Z,17.50
2022-09-02T02:01:12.030Z,17.60
2022-09-02T02:03:38.801Z,17.60
2022-09-02T02:06:09.874Z,17.60
2022-09-02T02:08:36.498Z,17.60
2022-09-02T02:11:03.113Z,17.60
2022-09-02T02:13:29.773Z,17.60
2022-09-02T02:15:56.551Z,17.60
2022-09-02T02:18:23.226Z,17.50
2022-09-02T02:20:49.906Z,17.40
2022-09-02T02:23:17.849Z,17.40
2022-09-02T02:25:46.828Z,17.40
2022-09-02T02:28:14.635Z,17.40
2022-09-02T02:30:41.201Z,17.50
2022-09-02T02:33:10.333Z,17.50
2022-09-02T02:35:36.940Z,17.50
2022-09-02T02:38:04.189Z,17.50
2022-09-02T02:40:31.654Z,17.50
2022-09-02T02:43:01.187Z,17.40
2022-09-02T02:45:27.923Z,17.50
2022-09-02T02:47:54.590Z,17.50
2022-09-02T02:50:22.414Z,17.40
2022-09-02T02:52:49.162Z,17.40
2022-09-02T02:55:16.152Z,17.20
2022-09-02T02:57:43.637Z,17.20
2022-09-02T03:00:12.389Z,17.20
2022-09-02T03:02:39.382Z,17.20
2022-09-02T03:05:07.088Z,17.20
2022-09-02T03:07:36.638Z,17.10
2022-09-02T03:10:04.965Z,17.10
2022-09-02T03:12:33.210Z,17.10
2022-09-02T03:14:59.823Z,17.10
2022-09-02T03:17:26.407Z,17.10
2022-09-02T03:19:59.337Z,17.10
2022-09-02T03:22:26.807Z,17.10
2022-09-02T03:24:55.917Z,17.10
2022-09-02T03:27:22.685Z,17.00
2022-09-02T03:29:49.276Z,17.10
2022-09-02T03:32:15.935Z,17.10
2022-09-02T03:34:42.505Z,17.10
2022-09-02T03:37:09.211Z,17.00
2022-09-02T03:39:37.325Z,17.00
2022-09-02T03:42:06.301Z,16.90
2022-09-02T03:44:35.080Z,16.90
2022-09-02T03:47:01.758Z,16.90
2022-09-02T03:49:28.604Z,16.90
2022-09-02T03:51:55.266Z,16.90
2022-09-02T03:54:21.887Z,16.90
2022-09-02T03:56:50.830Z,16.80
2022-09-02T03:59:19.832Z,16.80
2022-09-02T04:01:47.099Z,16.80
2022-09-02T04:04:19.675Z,16.70
2022-09-02T04:06:48.844Z,16.70
2022-09-02T04:09:15.438Z,16.70
2022-09-02T04:11:44.985Z,16.60
2022-09-02T04:14:11.689Z,16.60
2022-09-02T04:17:15.854Z,16.60
2022-09-02T04:20:19.978Z,16.60
2022-09-02T04:22:46.591Z,16.50
2022-09-02T04:25:13.179Z,16.40
2022-09-02T04:27:39.887Z,16.40
2022-09-02T04:30:07.654Z,16.50
2022-09-02T04:32:39.865Z,16.40
2022-09-02T04:35:07.383Z,16.40
2022-09-02T04:37:33.985Z,16.40
2022-09-02T04:40:02.978Z,16.40
2022-09-02T04:42:31.964Z,16.50
2022-09-02T04:44:58.661Z,16.50
2022-09-02T04:47:26.443Z,16.50
2022-09-02T04:49:56.491Z,16.50
2022-09-02T04:52:23.173Z,16.50
2022-09-02T04:54:50.351Z,16.50
2022-09-02T04:57:17.330Z,16.50
2022-09-02T04:59:43.962Z,16.50
2022-09-02T05:02:11.078Z,16.50
2022-09-02T05:04:37.810Z,16.50
2022-09-02T05:07:04.436Z,16.50
2022-09-02T05:09:31.564Z,16.50
2022-09-02T05:11:58.357Z,16.50
2022-09-02T05:14:25.244Z,16.50
2022-09-02T05:16:54.976Z,16.50
2022-09-02T05:19:23.308Z,16.50
2022-09-02T05:21:51.033Z,16.50
2022-09-02T05:24:26.440Z,16.50
2022-09-02T05:26:53.551Z,16.60
2022-09-02T05:29:20.593Z,16.50
2022-09-02T05:31:47.800Z,16.50
2022-09-02T05:34:14.536Z,16.50
2022-09-02T05:36:41.370Z,16.60
2022-09-02T05:39:10.348Z,16.60
2022-09-02T05:41:37.009Z,16.60
2022-09-02T05:44:04.377Z,16.60
2022-09-02T05:46:31.358Z,16.60
2022-09-02T05:49:08.701Z,16.60
2022-09-02T05:51:42.958Z,16.60
2022-09-02T05:54:13.162Z,16.60
2022-09-02T05:56:40.624Z,16.60
2022-09-02T05:59:12.280Z,16.60
2022-09-02T06:01:39.483Z,16.70
2022-09-02T06:04:08.749Z,16.70
2022-09-02T06:06:38.683Z,16.70
2022-09-02T06:09:12.335Z,16.80
2022-09-02T06:11:40.471Z,16.80
2022-09-02T06:14:07.999Z,16.90
2022-09-02T06:16:37.952Z,16.90
2022-09-02T06:19:07.051Z,17.00
2022-09-02T06:21:33.728Z,17.00
2022-09-02T06:24:00.304Z,17.00
2022-09-02T06:26:27.065Z,17.10
2022-09-02T06:28:55.794Z,17.10
2022-09-02T06:31:27.076Z,17.10
2022-09-02T06:34:01.291Z,17.10
2022-09-02T06:36:33.094Z,17.10
2022-09-02T06:39:00.402Z,17.20
2022-09-02T06:41:28.585Z,17.20
2022-09-02T06:43:56.551Z,17.30
2022-09-02T06:46:25.382Z,17.30
2022-09-02T06:48:52.124Z,17.30
2022-09-02T06:51:39.008Z,17.30
2022-09-02T06:54:09.548Z,17.30
2022-09-02T06:56:38.634Z,17.30
2022-09-02T06:59:06.211Z,17.40
2022-09-02T07:01:34.100Z,17.40
2022-09-02T07:04:19.608Z,17.50
2022-09-02T07:06:48.079Z,17.60
2022-09-02T07:09:16.557Z,17.70
2022-09-02T07:11:47.724Z,18.30
2022-09-02T07:14:20.597Z,19.30
2022-09-02T07:16:50.256Z,19.30
2022-09-02T07:19:20.499Z,19.00
2022-09-02T07:21:49.312Z,18.80
2022-09-02T07:24:18.673Z,18.60
2022-09-02T07:26:48.204Z,18.50
2022-09-02T07:29:14.890Z,18.60
2022-09-02T07:31:42.748Z,18.70
2022-09-02T07:34:12.039Z,18.70
2022-09-02T07:36:38.635Z,18.70
2022-09-02T07:39:06.632Z,18.70
2022-09-02T07:41:33.535Z,18.70
2022-09-02T07:44:00.211Z,18.80
2022-09-02T07:46:29.983Z,18.80
2022-09-02T07:48:59.583Z,19.00
2022-09-02T07:51:30.773Z,19.30
2022-09-02T07:53:57.936Z,19.60
2022-09-02T07:56:24.643Z,19.70
2022-09-02T07:58:53.443Z,19.90
2022-09-02T08:01:23.646Z,20.10
2022-09-02T08:03:50.706Z,20.60
2022-09-02T08:06:17.618Z,20.90
2022-09-02T08:08:55.088Z,21.20
2022-09-02T08:11:24.037Z,21.40
2022-09-02T08:13:55.391Z,21.40
2022-09-02T08:16:25.738Z,21.40
2022-09-02T08:18:52.610Z,21.30
2022-09-02T08:21:19.494Z,21.30
2022-09-02T08:23:50.120Z,21.40
2022-09-02T08:26:19.630Z,21.50
2022-09-02T08:28:46.288Z,21.50
2022-09-02T08:31:15.393Z,21.60
2022-09-02T08:33:42.507Z,21.80
2022-09-02T08:36:11.769Z,21.90
2022-09-02T08:38:38.497Z,22.00
2022-09-02T08:41:17.147Z,22.00
2022-09-02T08:43:44.793Z,22.20
2022-09-02T08:46:14.889Z,22.20
2022-09-02T08:49:08.302Z,22.20
2022-09-02T08:51:42.837Z,22.30
2022-09-02T08:54:22.257Z,22.30
2022-09-02T08:56:52.626Z,22.50
2022-09-02T08:59:21.459Z,22.60
2022-09-02T09:01:50.705Z,22.70
2022-09-02T09:04:27.414Z,22.80
2022-09-02T09:06:54.065Z,22.90
2022-09-02T09:09:36.058Z,23.00
2022-09-02T09:12:04.880Z,23.00
2022-09-02T09:14:47.261Z,23.00
2022-09-02T09:17:19.993Z,23.00
2022-09-02T09:19:53.861Z,23.10
2022-09-02T09:22:21.862Z,23.20
2022-09-02T09:24:51.489Z,23.20
2022-09-02T09:27:22.347Z,23.30
2022-09-02T09:29:49.758Z,23.30
2022-09-02T09:32:16.388Z,23.40
2022-09-02T09:34:52.317Z,23.40
2022-09-02T09:37:37.053Z,23.40
2022-09-02T09:40:33.195Z,23.40
2022-09-02T09:43:24.511Z,23.30
2022-09-02T09:45:51.991Z,23.30
2022-09-02T09:48:23.295Z,23.30
2022-09-02T09:50:55.674Z,23.20
2022-09-02T09:53:24.007Z,23.10
2022-09-02T09:55:53.812Z,23.20
2022-09-02T09:58:21.824Z,23.20
2022-09-02T10:00:48.754Z,23.30
2022-09-02T10:03:21.569Z,23.40
2022-09-02T10:05:49.650Z,23.40
2022-09-02T10:08:16.201Z,23.40
2022-09-02T10:10:56.082Z,23.50
2022-09-02T10:13:30.527Z,23.50
2022-09-02T10:16:06.139Z,23.50
2022-09-02T10:18:40.145Z,23.60
2022-09-02T10:21:15.311Z,23.70
2022-09-02T10:23:51.603Z,23.80
2022-09-02T10:29:16.853Z,23.90
2022-09-02T10:31:52.333Z,23.80
2022-09-02T10:34:31.172Z,23.70
2022-09-02T10:37:09.716Z,23.60
2022-09-02T10:39:39.013Z,23.60
2022-09-02T10:42:14.677Z,23.50
2022-09-02T10:44:59.868Z,23.50
2022-09-02T10:47:38.780Z,23.50
2022-09-02T10:50:20.830Z,23.50
2022-09-02T10:52:53.348Z,23.50
2022-09-02T10:55:42.962Z,23.60
2022-09-02T10:58:28.101Z,23.60
2022-09-02T11:00:56.551Z,23.60
2022-09-02T11:03:33.274Z,23.60
2022-09-02T11:06:07.904Z,23.60
2022-09-02T11:08:37.605Z,23.50
2022-09-02T11:11:13.333Z,23.50
2022-09-02T11:13:39.946Z,23.60
2022-09-02T11:16:06.653Z,23.50
2022-09-02T11:18:45.002Z,23.50
2022-09-02T11:21:31.731Z,23.50
2022-09-02T11:23:59.414Z,23.60
2022-09-02T11:26:32.625Z,23.70
2022-09-02T11:29:10.512Z,23.70
2022-09-02T11:32:04.674Z,23.80
2022-09-02T11:34:35.298Z,23.80
2022-09-02T11:37:10.725Z,23.90
2022-09-02T11:40:11.223Z,24.00
2022-09-02T11:42:37.347Z,24.10
2022-09-02T11:45:22.865Z,24.20
2022-09-02T11:48:08.055Z,24.10
2022-09-02T11:50:39.491Z,24.30
2022-09-02T11:53:21.098Z,24.30
2022-09-02T11:55:47.780Z,24.30
2022-09-02T11:58:35.672Z,24.40
2022-09-02T12:01:16.227Z,24.50
2022-09-02T12:04:27.506Z,24.60
2022-09-02T12:06:38.739Z,24.60
2022-09-02T12:09:09.136Z,24.60
2022-09-02T12:11:43.037Z,24.70
2022-09-02T12:14:13.824Z,24.70
2022-09-02T12:16:41.953Z,24.70
2022-09-02T12:19:10.627Z,24.70
2022-09-02T12:21:57.179Z,24.70
2022-09-02T12:24:25.411Z,24.80
2022-09-02T12:26:52.978Z,24.80
2022-09-02T12:29:23.976Z,24.80
2022-09-02T12:31:52.498Z,24.80
2022-09-02T12:34:25.619Z,24.70
2022-09-02T12:36:56.329Z,24.70
2022-09-02T12:39:25.342Z,24.60
2022-09-02T12:41:55.181Z,24.40
2022-09-02T12:44:31.380Z,24.30
2022-09-02T12:46:58.010Z,24.30
2022-09-02T12:49:27.781Z,24.20
2022-09-02T12:51:59.787Z,24.00
2022-09-02T12:54:38.565Z,24.00
2022-09-02T12:57:09.151Z,24.10
2022-09-02T12:59:38.058Z,24.10
2022-09-02T13:02:10.559Z,24.10
2022-09-02T13:04:44.056Z,24.10
2022-09-02T13:07:10.636Z,24.10
2022-09-02T13:09:40.204Z,24.10
2022-09-02T13:12:15.575Z,24.10
2022-09-02T13:14:44.994Z,24.00
2022-09-02T13:17:35.985Z,24.00
2022-09-02T13:20:20.042Z,24.00
2022-09-02T13:22:46.623Z,24.00
2022-09-02T13:25:29.140Z,24.00
2022-09-02T13:27:58.769Z,24.00
2022-09-02T13:30:38.103Z,23.90
2022-09-02T13:33:12.097Z,23.90
2022-09-02T13:35:40.398Z,23.90
2022-09-02T13:40:43.961Z,23.70
2022-09-02T13:43:12.561Z,23.70
2022-09-02T13:45:39.758Z,23.80
2022-09-02T13:50:50.839Z,23.80
2022-09-02T13:53:45.910Z,24.00
2022-09-02T13:56:25.553Z,24.10
2022-09-02T13:58:53.232Z,24.30
2022-09-02T14:01:20.057Z,24.30
2022-09-02T14:03:51.745Z,24.30
2022-09-02T14:06:20.091Z,24.30
2022-09-02T14:08:55.701Z,24.30
2022-09-02T14:11:24.953Z,24.30
2022-09-02T14:13:51.717Z,24.30
2022-09-02T14:16:24.294Z,24.30
2022-09-02T14:19:23.097Z,24.20
2022-09-02T14:21:57.258Z,24.20
2022-09-02T14:24:26.266Z,24.20
2022-09-02T14:26:53.745Z,24.30
2022-09-02T14:29:21.201Z,24.30
2022-09-02T14:32:05.331Z,24.20
2022-09-02T14:34:35.825Z,24.30
2022-09-02T14:37:14.915Z,24.30
2022-09-02T14:40:00.034Z,24.30
2022-09-02T14:42:29.502Z,24.30
2022-09-02T14:44:59.346Z,24.30
2022-09-02T14:47:28.130Z,24.30
2022-09-02T14:49:57.743Z,24.40
2022-09-02T14:52:33.346Z,24.40
2022-09-02T14:55:00.572Z,24.40
2022-09-02T14:57:32.850Z,24.40
2022-09-02T15:00:08.520Z,24.50
2022-09-02T15:02:40.543Z,24.50
2022-09-02T15:05:08.772Z,24.50
2022-09-02T15:07:35.549Z,24.60
2022-09-02T15:10:07.331Z,24.50
2022-09-02T15:12:34.765Z,24.50
2022-09-02T15:15:01.404Z,24.50
2022-09-02T15:17:29.446Z,24.50
2022-09-02T15:19:56.603Z,24.50
2022-09-02T15:22:23.820Z,24.50
2022-09-02T15:24:51.957Z,24.60
2022-09-02T15:27:21.749Z,24.60
2022-09-02T15:29:48.927Z,24.60
2022-09-02T15:32:15.638Z,24.70
2022-09-02T15:34:42.226Z,24.70
2022-09-02T15:37:12.814Z,24.60
2022-09-02T15:39:40.218Z,24.70
2022-09-02T15:42:09.128Z,24.60
2022-09-02T15:44:35.827Z,24.60
2022-09-02T15:47:02.650Z,24.60
2022-09-02T15:49:30.604Z,24.60
2022-09-02T15:51:58.876Z,24.50
2022-09-02T15:54:27.707Z,24.50
2022-09-02T15:56:55.882Z,24.50
2022-09-02T15:59:25.731Z,24.50
2022-09-02T16:01:56.810Z,24.50
2022-09-02T16:04:23.489Z,24.50
2022-09-02T16:06:52.288Z,24.40
2022-09-02T16:09:19.395Z,24.40
2022-09-02T16:11:50.350Z,24.50
2022-09-02T16:14:20.552Z,24.50
2022-09-02T16:16:49.047Z,24.50
2022-09-02T16:19:18.761Z,24.50
2022-09-02T16:21:45.381Z,24.40
2022-09-02T16:24:14.153Z,24.50
2022-09-02T16:26:41.641Z,24.40
2022-09-02T16:29:09.305Z,24.40
2022-09-02T16:31:39.836Z,24.40
2022-09-02T16:34:07.874Z,24.40
2022-09-02T16:36:35.649Z,24.40
2022-09-02T16:39:03.144Z,24.40
2022-09-02T16:41:34.785Z,24.40
2022-09-02T16:44:05.567Z,24.30
2022-09-02T16:46:32.659Z,24.30
2022-09-02T16:48:59.342Z,24.30
2022-09-02T16:51:30.034Z,24.30
2022-09-02T16:53:58.336Z,24.30
2022-09-02T16:56:26.127Z,24.30
2022-09-02T16:58:53.303Z,24.30
2022-09-02T17:01:21.802Z,24.30
2022-09-02T17:03:48.903Z,24.20
2022-09-02T17:06:20.116Z,24.20
2022-09-02T17:08:50.428Z,24.10
2022-09-02T17:11:19.257Z,24.10
2022-09-02T17:13:46.633Z,24.10
2022-09-02T17:16:13.438Z,24.10
2022-09-02T17:18:40.263Z,24.00
2022-09-02T17:21:21.915Z,23.90
2022-09-02T17:23:49.178Z,23.90
2022-09-02T17:26:16.131Z,23.90
2022-09-02T17:28:49.021Z,23.90
2022-09-02T17:31:15.686Z,23.80
2022-09-02T17:33:44.529Z,23.80
2022-09-02T17:36:13.511Z,23.70
2022-09-02T17:38:42.371Z,23.70
2022-09-02T17:41:27.766Z,23.70
2022-09-02T17:43:54.387Z,23.70
2022-09-02T17:46:23.459Z,23.60
2022-09-02T17:49:15.268Z,23.60
2022-09-02T17:51:36.969Z,23.50
2022-09-02T17:54:07.522Z,23.50
2022-09-02T17:56:46.211Z,23.50
2022-09-02T17:59:18.561Z,23.40
2022-09-02T18:02:00.647Z,23.40
2022-09-02T18:04:45.354Z,23.30
2022-09-02T18:07:21.678Z,23.30
2022-09-02T18:09:51.623Z,23.20
2022-09-02T18:12:20.656Z,23.20
2022-09-02T18:14:51.529Z,23.20
2022-09-02T18:17:23.069Z,23.10
2022-09-02T18:19:56.506Z,23.10
2022-09-02T18:22:44.536Z,23.00
2022-09-02T18:25:18.804Z,23.00
2022-09-02T18:28:04.176Z,22.90
2022-09-02T18:30:33.533Z,22.80
2022-09-02T18:33:06.566Z,22.80
2022-09-02T18:35:33.149Z,22.70
2022-09-02T18:38:21.448Z,22.70
2022-09-02T18:40:51.252Z,22.60
2022-09-02T18:43:38.276Z,22.60
2022-09-02T18:46:05.399Z,22.50
2022-09-02T18:48:33.351Z,22.30
2022-09-02T18:51:07.125Z,22.20
2022-09-02T18:53:36.899Z,22.10
2022-09-02T18:56:07.910Z,22.10
2022-09-02T18:58:47.205Z,22.10
2022-09-02T19:01:16.621Z,22.00
2022-09-02T19:03:45.755Z,22.00
2022-09-02T19:06:17.192Z,21.90
2022-09-02T19:08:47.268Z,21.90
2022-09-02T19:11:15.282Z,21.90
2022-09-02T19:13:51.201Z,21.80
2022-09-02T19:16:19.286Z,21.80
2022-09-02T19:18:46.098Z,21.80
2022-09-02T19:21:16.269Z,21.70
2022-09-02T19:23:46.237Z,21.70
2022-09-02T19:26:12.823Z,21.60
2022-09-02T19:28:42.442Z,21.70
2022-09-02T19:31:18.067Z,21.60
2022-09-02T19:33:44.991Z,21.60
2022-09-02T19:36:11.638Z,21.50
2022-09-02T19:38:39.165Z,21.50
2022-09-02T19:41:07.918Z,21.40
2022-09-02T19:43:35.799Z,21.40
2022-09-02T19:46:04.830Z,21.30
2022-09-02T19:48:31.543Z,21.20
2022-09-02T19:51:00.251Z,21.20
2022-09-02T19:53:30.318Z,21.10
2022-09-02T19:55:57.635Z,21.00
2022-09-02T19:58:26.828Z,21.00
2022-09-02T20:00:56.967Z,20.90
2022-09-02T20:03:23.654Z,20.90
2022-09-02T20:05:52.415Z,20.80
2022-09-02T20:08:19.996Z,20.70
2022-09-02T20:10:55.939Z,20.60
2022-09-02T20:13:24.257Z,20.60
2022-09-02T20:15:51.829Z,20.50
2022-09-02T20:18:19.094Z,20.40
2022-09-02T20:20:49.685Z,20.40
2022-09-02T20:23:17.765Z,20.40
2022-09-02T20:25:44.594Z,20.40
2022-09-02T20:28:20.164Z,20.30
2022-09-02T20:30:51.909Z,20.30
2022-09-02T20:33:19.576Z,20.20
2022-09-02T20:35:58.341Z,20.20
2022-09-02T20:38:25.041Z,20.10
2022-09-02T20:41:01.454Z,20.10
2022-09-02T20:43:34.030Z,20.10
2022-09-02T20:46:17.429Z,20.00
2022-09-02T20:48:44.082Z,19.90
2022-09-02T20:51:30.150Z,19.70
2022-09-02T20:54:11.850Z,19.70
2022-09-02T20:56:50.537Z,19.60
2022-09-02T20:59:35.943Z,19.60
2022-09-02T21:02:06.934Z,19.50
2022-09-02T21:04:38.884Z,19.50
2022-09-02T21:07:17.767Z,19.30
2022-09-02T21:09:50.616Z,19.30
2022-09-02T21:12:19.996Z,19.10
2022-09-02T21:14:48.211Z,19.10
2022-09-02T21:17:22.045Z,19.10
2022-09-02T21:20:06.862Z,19.10
2022-09-02T21:22:45.036Z,19.10
2022-09-02T21:25:28.894Z,19.00
2022-09-02T21:27:58.368Z,18.90
2022-09-02T21:30:28.058Z,18.90
2022-09-02T21:32:56.143Z,18.80
2022-09-02T21:35:37.193Z,18.70
2022-09-02T21:38:25.162Z,18.60
2022-09-02T21:41:10.704Z,18.60
2022-09-02T21:43:55.917Z,18.50
2022-09-02T21:46:26.395Z,18.50
2022-09-02T21:49:19.604Z,18.40
2022-09-02T21:51:49.697Z,18.40
2022-09-02T21:54:16.253Z,18.30
2022-09-02T21:56:54.234Z,18.30
2022-09-02T21:59:39.483Z,18.30
2022-09-02T22:02:12.329Z,18.20
2022-09-02T22:04:57.309Z,18.10
2022-09-02T22:07:44.524Z,18.10
2022-09-02T22:10:11.099Z,18.10
2022-09-02T22:12:42.168Z,18.00
2022-09-02T22:15:20.977Z,18.00
2022-09-02T22:17:47.524Z,18.00
2022-09-02T22:20:16.858Z,18.00
2022-09-02T22:22:47.192Z,18.00
2022-09-02T22:25:21.574Z,17.90
2022-09-02T22:27:56.882Z,18.00
2022-09-02T22:30:23.561Z,18.00
2022-09-02T22:32:53.907Z,17.90
2022-09-02T22:35:28.440Z,17.80
2022-09-02T22:37:59.525Z,17.80
2022-09-02T22:40:27.896Z,17.70
2022-09-02T22:42:57.850Z,17.70
2022-09-02T22:45:47.355Z,17.70
2022-09-02T22:48:38.050Z,17.60
2022-09-02T22:51:26.566Z,17.50
2022-09-02T22:53:53.138Z,17.40
2022-09-02T22:56:28.062Z,17.30
2022-09-02T22:59:15.969Z,17.30
2022-09-02T23:01:53.573Z,17.30
2022-09-02T23:04:29.419Z,17.20
2022-09-02T23:07:01.745Z,17.20
2022-09-02T23:09:28.430Z,17.20
2022-09-02T23:12:02.167Z,17.20
2022-09-02T23:14:38.873Z,17.10
2022-09-02T23:17:18.269Z,17.10
2022-09-02T23:19:56.537Z,17.10
2022-09-02T23:22:33.847Z,17.00
2022-09-02T23:25:00.730Z,17.00
2022-09-02T23:27:34.246Z,16.90
2022-09-02T23:30:01.643Z,16.80
2022-09-02T23:32:39.323Z,16.70
2022-09-02T23:35:16.581Z,16.60
2022-09-02T23:37:45.964Z,16.50
2022-09-02T23:40:12.588Z,16.40
2022-09-02T23:42:39.337Z,16.40
2022-09-02T23:45:22.179Z,16.50
2022-09-02T23:48:07.383Z,16.50
2022-09-02T23:50:47.075Z,16.50
2022-09-02T23:53:23.558Z,16.50
2022-09-02T23:56:09.037Z,16.50
2022-09-02T23:58:57.438Z,16.50
